createdAt,value
2019-01-04T00:00:39.394Z,-1.30
2019-01-04T00:03:07.987Z,-1.30
2019-01-04T00:05:36.565Z,-1.30
2019-01-04T00:08:05.215Z,-1.30
2019-01-04T00:10:33.792Z,-1.30
2019-01-04T00:13:02.441Z,-1.20
2019-01-04T00:15:31.088Z,-1.30
2019-01-04T00:17:59.659Z,-1.40
2019-01-04T00:20:28.247Z,-1.30
2019-01-04T00:22:56.818Z,-1.40
2019-01-04T00:25:25.407Z,-1.30
2019-01-04T00:27:53.976Z,-1.30
2019-01-04T00:30:22.720Z,-1.30
2019-01-04T00:32:51.337Z,-1.30
2019-01-04T00:35:19.937Z,-1.20
2019-01-04T00:37:48.509Z,-1.10
2019-01-04T00:40:17.164Z,-0.90
2019-01-04T00:42:45.735Z,-1.10
2019-01-04T00:45:14.323Z,-1.20
2019-01-04T00:47:42.896Z,-1.00
2019-01-04T00:50:11.561Z,-1.00
2019-01-04T00:52:40.129Z,-0.90
2019-01-04T00:55:14.448Z,-0.90
2019-01-04T00:57:54.890Z,-1.10
2019-01-04T01:00:35.419Z,-1.20
2019-01-04T01:03:19.046Z,-0.90
2019-01-04T01:06:23.639Z,-1.00
2019-01-04T01:09:04.422Z,-1.10
2019-01-04T01:11:44.859Z,-1.20
2019-01-04T01:14:35.531Z,-1.20
2019-01-04T01:17:10.072Z,-1.10
2019-01-04T01:20:04.123Z,-1.10
2019-01-04T01:22:50.527Z,-1.30
2019-01-04T01:25:40.099Z,-1.30
2019-01-04T01:28:14.401Z,-1.40
2019-01-04T01:31:09.803Z,-1.40
2019-01-04T01:34:05.204Z,-1.30
2019-01-04T01:36:39.415Z,-1.00
2019-01-04T01:39:44.068Z,-0.90
2019-01-04T01:42:34.937Z,-0.90
2019-01-04T01:45:22.947Z,-1.10
2019-01-04T01:47:51.511Z,-1.20
2019-01-04T01:50:55.906Z,-0.90
2019-01-04T01:53:27.551Z,-0.80
2019-01-04T01:55:56.143Z,-1.00
2019-01-04T01:58:24.715Z,-1.20
2019-01-04T02:00:53.308Z,-1.10
2019-01-04T02:03:21.879Z,-1.30
2019-01-04T02:05:50.479Z,-1.30
2019-01-04T02:08:19.047Z,-1.30
2019-01-04T02:10:47.644Z,-1.20
2019-01-04T02:13:16.219Z,-1.20
2019-01-04T02:15:44.811Z,-1.30
2019-01-04T02:18:13.379Z,-1.40
2019-01-04T02:20:41.971Z,-1.40
2019-01-04T02:23:10.539Z,-1.40
2019-01-04T02:25:39.127Z,-1.40
2019-01-04T02:28:07.699Z,-1.40
2019-01-04T02:30:36.287Z,-1.40
2019-01-04T02:33:04.859Z,-1.40
2019-01-04T02:35:33.448Z,-1.40
2019-01-04T02:38:02.020Z,-1.40
2019-01-04T02:40:30.617Z,-1.40
2019-01-04T02:42:59.188Z,-1.40
2019-01-04T02:45:27.776Z,-1.40
2019-01-04T02:47:56.339Z,-1.30
2019-01-04T02:50:24.935Z,-1.30
2019-01-04T02:52:53.507Z,-1.40
2019-01-04T02:55:22.091Z,-1.40
2019-01-04T02:57:50.667Z,-1.40
2019-01-04T03:00:19.259Z,-1.40
2019-01-04T03:02:47.833Z,-1.40
2019-01-04T03:05:16.418Z,-1.30
2019-01-04T03:07:44.991Z,-1.40
2019-01-04T03:10:13.587Z,-1.40
2019-01-04T03:12:42.158Z,-1.40
2019-01-04T03:15:10.763Z,-1.40
2019-01-04T03:17:39.329Z,-1.30
2019-01-04T03:20:07.920Z,-1.30
2019-01-04T03:22:36.492Z,-1.40
2019-01-04T03:25:05.431Z,-1.30
2019-01-04T03:27:33.995Z,-1.30
2019-01-04T03:30:02.589Z,-1.30
2019-01-04T03:32:31.165Z,-1.30
2019-01-04T03:34:59.764Z,-1.30
2019-01-04T03:37:28.331Z,-1.30
2019-01-04T03:39:56.919Z,-1.30
2019-01-04T03:42:25.495Z,-1.30
2019-01-04T03:44:54.096Z,-1.30
2019-01-04T03:47:22.671Z,-1.30
2019-01-04T03:49:51.272Z,-1.30
2019-01-04T03:52:19.844Z,-1.20
2019-01-04T03:54:48.434Z,-1.20
2019-01-04T03:57:17.015Z,-1.20
2019-01-04T03:59:45.610Z,-1.20
2019-01-04T04:02:14.187Z,-1.20
2019-01-04T04:04:42.754Z,-1.20
2019-01-04T04:07:11.354Z,-1.20
2019-01-04T04:09:39.926Z,-1.20
2019-01-04T04:12:08.522Z,-1.20
2019-01-04T04:14:37.688Z,-1.20
2019-01-04T04:17:06.289Z,-1.20
2019-01-04T04:19:34.859Z,-1.10
2019-01-04T04:22:03.454Z,-1.20
2019-01-04T04:24:32.035Z,-1.10
2019-01-04T04:27:00.632Z,-1.10
2019-01-04T04:29:29.203Z,-1.10
2019-01-04T04:31:57.798Z,-1.10
2019-01-04T04:34:26.384Z,-1.10
2019-01-04T04:36:54.970Z,-1.10
2019-01-04T04:39:23.538Z,-1.10
2019-01-04T04:41:52.138Z,-1.10
2019-01-04T04:44:20.708Z,-1.00
2019-01-04T04:46:49.303Z,-1.00
2019-01-04T04:49:17.875Z,-1.00
2019-01-04T04:51:46.475Z,-1.00
2019-01-04T04:54:15.049Z,-1.00
2019-01-04T04:56:43.644Z,-1.00
2019-01-04T04:59:12.216Z,-0.90
2019-01-04T05:01:40.817Z,-0.90
2019-01-04T05:04:09.395Z,-0.90
2019-01-04T05:06:37.992Z,-0.90
2019-01-04T05:09:06.737Z,-1.00
2019-01-04T05:11:35.331Z,-0.90
2019-01-04T05:14:03.907Z,-0.90
2019-01-04T05:16:32.506Z,-0.90
2019-01-04T05:19:01.074Z,-0.90
2019-01-04T05:21:29.671Z,-0.90
2019-01-04T05:23:58.251Z,-0.90
2019-01-04T05:26:26.839Z,-0.90
2019-01-04T05:28:55.411Z,-0.80
2019-01-04T05:31:24.008Z,-0.90
2019-01-04T05:33:52.851Z,-0.90
2019-01-04T05:36:21.442Z,-0.90
2019-01-04T05:38:50.024Z,-0.90
2019-01-04T05:41:18.618Z,-0.90
2019-01-04T05:43:47.191Z,-0.90
2019-01-04T05:46:15.783Z,-0.90
2019-01-04T05:48:44.359Z,-0.80
2019-01-04T05:51:12.951Z,-0.80
2019-01-04T05:53:41.525Z,-0.80
2019-01-04T05:56:10.120Z,-0.80
2019-01-04T05:58:38.698Z,-0.80
2019-01-04T06:01:07.294Z,-0.80
2019-01-04T06:03:35.867Z,-0.80
2019-01-04T06:06:04.464Z,-0.70
2019-01-04T06:08:33.043Z,-0.70
2019-01-04T06:11:01.640Z,-0.70
2019-01-04T06:13:30.207Z,-0.70
2019-01-04T06:15:58.800Z,-0.70
2019-01-04T06:18:27.410Z,-0.70
2019-01-04T06:20:56.054Z,-0.70
2019-01-04T06:23:24.625Z,-0.70
2019-01-04T06:25:53.214Z,-0.70
2019-01-04T06:28:21.783Z,-0.70
2019-01-04T06:30:50.347Z,-0.70
2019-01-04T06:33:18.934Z,-0.70
2019-01-04T06:35:47.509Z,-0.60
2019-01-04T06:38:16.106Z,-0.70
2019-01-04T06:40:44.675Z,-0.60
2019-01-04T06:43:13.271Z,-0.70
2019-01-04T06:45:41.839Z,-0.70
2019-01-04T06:48:10.435Z,-0.70
2019-01-04T06:50:39.008Z,-0.70
2019-01-04T06:53:07.604Z,-0.70
2019-01-04T06:55:47.411Z,-0.70
2019-01-04T06:58:16.012Z,-0.60
2019-01-04T07:00:44.584Z,-0.60
2019-01-04T07:03:13.179Z,-0.60
2019-01-04T07:05:41.758Z,-0.60
2019-01-04T07:08:10.350Z,-0.60
2019-01-04T07:10:38.925Z,-0.60
2019-01-04T07:13:07.511Z,-0.60
2019-01-04T07:15:36.082Z,-0.60
2019-01-04T07:18:04.676Z,-0.60
2019-01-04T07:20:33.249Z,-0.60
2019-01-04T07:23:01.843Z,-0.60
2019-01-04T07:25:30.420Z,-0.60
2019-01-04T07:27:59.007Z,-0.60
2019-01-04T07:30:27.574Z,-0.60
2019-01-04T07:32:56.163Z,-0.60
2019-01-04T07:35:24.731Z,-0.50
2019-01-04T07:37:53.321Z,-0.50
2019-01-04T07:40:21.890Z,-0.50
2019-01-04T07:42:50.477Z,-0.50
2019-01-04T07:45:19.056Z,-0.50
2019-01-04T07:47:47.644Z,-0.50
2019-01-04T07:50:16.217Z,-0.50
2019-01-04T07:52:44.810Z,-0.50
2019-01-04T07:55:13.382Z,-0.50
2019-01-04T07:57:41.979Z,-0.50
2019-01-04T08:00:12.182Z,-0.50
2019-01-04T08:02:42.311Z,-0.50
2019-01-04T08:05:13.023Z,-0.40
2019-01-04T08:07:41.625Z,-0.40
2019-01-04T08:10:10.488Z,-0.50
2019-01-04T08:12:39.076Z,-0.50
2019-01-04T08:15:09.888Z,-0.50
2019-01-04T08:17:38.478Z,-0.50
2019-01-04T08:20:09.383Z,-0.50
2019-01-04T08:22:37.979Z,-0.40
2019-01-04T08:25:07.482Z,-0.40
2019-01-04T08:27:36.146Z,-0.40
2019-01-04T08:30:07.959Z,-0.40
2019-01-04T08:32:36.547Z,-0.40
2019-01-04T08:35:05.491Z,-0.30
2019-01-04T08:37:34.084Z,-0.20
2019-01-04T08:40:02.660Z,-0.20
2019-01-04T08:42:31.279Z,-0.20
2019-01-04T08:44:59.850Z,-0.20
2019-01-04T08:47:28.435Z,-0.20
2019-01-04T08:49:57.002Z,-0.20
2019-01-04T08:52:25.590Z,-0.20
2019-01-04T08:54:54.163Z,-0.20
2019-01-04T08:57:22.751Z,-0.20
2019-01-04T08:59:51.319Z,-0.20
2019-01-04T09:02:19.906Z,-0.10
2019-01-04T09:04:48.475Z,-0.10
2019-01-04T09:07:17.071Z,-0.10
2019-01-04T09:09:45.827Z,-0.10
2019-01-04T09:12:14.424Z,-0.10
2019-01-04T09:14:42.995Z,-0.10
2019-01-04T09:17:11.591Z,-0.10
2019-01-04T09:19:40.171Z,-0.10
2019-01-04T09:22:08.741Z,-0.10
2019-01-04T09:24:37.331Z,-0.10
2019-01-04T09:27:05.899Z,-0.10
2019-01-04T09:29:34.496Z,-0.10
2019-01-04T09:32:03.059Z,0.00
2019-01-04T09:34:31.652Z,0.00
2019-01-04T09:37:00.212Z,0.00
2019-01-04T09:39:29.747Z,-0.10
2019-01-04T09:41:59.347Z,0.10
2019-01-04T09:44:27.939Z,0.10
2019-01-04T09:46:57.676Z,0.10
2019-01-04T09:49:26.263Z,0.10
2019-01-04T09:51:54.822Z,0.10
2019-01-04T09:54:23.431Z,0.10
2019-01-04T09:56:51.983Z,0.10
2019-01-04T09:59:20.562Z,0.10
2019-01-04T10:01:49.128Z,0.20
2019-01-04T10:04:17.895Z,0.20
2019-01-04T10:06:46.400Z,0.20
2019-01-04T10:09:14.980Z,0.30
2019-01-04T10:11:45.012Z,0.30
2019-01-04T10:14:13.594Z,0.20
2019-01-04T10:16:42.163Z,0.20
2019-01-04T10:19:10.751Z,0.20
2019-01-04T10:21:39.314Z,0.20
2019-01-04T10:24:07.915Z,0.20
2019-01-04T10:26:36.479Z,0.20
2019-01-04T10:29:05.071Z,0.30
2019-01-04T10:31:33.634Z,0.30
2019-01-04T10:34:02.219Z,0.30
2019-01-04T10:36:30.788Z,0.30
2019-01-04T10:39:02.027Z,0.40
2019-01-04T10:41:30.591Z,0.40
2019-01-04T10:43:59.175Z,0.50
2019-01-04T10:46:27.740Z,0.60
2019-01-04T10:48:56.337Z,0.60
2019-01-04T10:51:24.909Z,0.70
2019-01-04T10:53:53.491Z,0.70
2019-01-04T10:56:22.067Z,0.70
2019-01-04T10:58:50.642Z,0.80
2019-01-04T11:01:19.209Z,0.80
2019-01-04T11:03:47.791Z,0.70
2019-01-04T11:06:16.362Z,0.70
2019-01-04T11:08:44.952Z,0.70
2019-01-04T11:11:13.543Z,0.70
2019-01-04T11:13:42.115Z,0.70
2019-01-04T11:16:10.683Z,0.70
2019-01-04T11:18:39.275Z,0.70
2019-01-04T11:21:07.847Z,0.70
2019-01-04T11:23:55.594Z,0.70
2019-01-04T11:26:32.941Z,0.70
2019-01-04T11:29:07.376Z,0.80
2019-01-04T11:31:47.544Z,0.70
2019-01-04T11:34:31.078Z,0.70
2019-01-04T11:37:05.706Z,0.70
2019-01-04T11:39:39.889Z,0.70
2019-01-04T11:42:23.358Z,0.70
2019-01-04T11:44:57.926Z,0.70
2019-01-04T11:47:46.060Z,0.70
2019-01-04T11:50:20.564Z,0.70
2019-01-04T11:52:49.297Z,0.70
2019-01-04T11:55:17.885Z,0.60
2019-01-04T11:57:46.450Z,0.60
2019-01-04T12:00:15.046Z,0.60
2019-01-04T12:02:43.604Z,0.60
2019-01-04T12:05:12.189Z,0.60
2019-01-04T12:07:40.950Z,0.60
2019-01-04T12:10:09.527Z,0.70
2019-01-04T12:12:38.085Z,0.70
2019-01-04T12:15:07.727Z,0.70
2019-01-04T12:17:36.290Z,0.70
2019-01-04T12:20:06.921Z,0.70
2019-01-04T12:22:35.484Z,0.70
2019-01-04T12:25:04.434Z,0.70
2019-01-04T12:27:33.031Z,0.70
2019-01-04T12:30:01.618Z,0.80
2019-01-04T12:32:30.187Z,0.70
2019-01-04T12:34:58.777Z,0.70
2019-01-04T12:37:27.347Z,0.80
2019-01-04T12:39:55.940Z,0.80
2019-01-04T12:42:24.509Z,0.80
2019-01-04T12:44:53.099Z,0.90
2019-01-04T12:47:21.658Z,0.90
2019-01-04T12:49:50.247Z,0.90
2019-01-04T12:52:18.818Z,0.90
2019-01-04T12:54:47.403Z,0.90
2019-01-04T12:57:15.971Z,0.90
2019-01-04T12:59:44.555Z,0.90
2019-01-04T13:02:13.141Z,0.90
2019-01-04T13:04:41.728Z,0.90
2019-01-04T13:07:10.295Z,0.90
2019-01-04T13:09:38.883Z,0.90
2019-01-04T13:12:07.449Z,0.80
2019-01-04T13:14:36.031Z,0.80
2019-01-04T13:17:04.671Z,0.80
2019-01-04T13:19:33.258Z,0.80
2019-01-04T13:22:01.835Z,0.80
2019-01-04T13:24:30.421Z,0.80
2019-01-04T13:26:59.322Z,0.80
2019-01-04T13:29:27.903Z,0.80
2019-01-04T13:31:56.471Z,0.80
2019-01-04T13:34:25.059Z,0.80
2019-01-04T13:36:53.625Z,0.80
2019-01-04T13:39:22.209Z,0.90
2019-01-04T13:41:50.773Z,0.90
2019-01-04T13:44:19.423Z,1.00
2019-01-04T13:46:47.983Z,1.00
2019-01-04T13:49:16.566Z,1.00
2019-01-04T13:51:45.134Z,1.00
2019-01-04T13:54:13.700Z,1.10
2019-01-04T13:56:42.283Z,1.10
2019-01-04T13:59:10.842Z,1.10
2019-01-04T14:01:39.442Z,1.10
2019-01-04T14:04:08.000Z,1.10
2019-01-04T14:06:37.418Z,1.10
2019-01-04T14:09:07.224Z,1.10
2019-01-04T14:11:35.806Z,1.20
2019-01-04T14:14:04.374Z,1.10
2019-01-04T14:16:32.959Z,1.20
2019-01-04T14:19:01.523Z,1.10
2019-01-04T14:21:30.114Z,1.10
2019-01-04T14:23:58.671Z,1.10
2019-01-04T14:26:27.259Z,1.10
2019-01-04T14:28:55.820Z,1.10
2019-01-04T14:31:24.407Z,1.20
2019-01-04T14:33:52.966Z,1.20
2019-01-04T14:36:21.558Z,1.20
2019-01-04T14:38:50.120Z,1.20
2019-01-04T14:41:23.357Z,1.20
2019-01-04T14:43:48.906Z,1.20
2019-01-04T14:46:17.492Z,1.20
2019-01-04T14:48:46.050Z,1.20
2019-01-04T14:51:14.635Z,1.20
2019-01-04T14:53:43.203Z,1.10
2019-01-04T14:56:13.546Z,1.10
2019-01-04T14:58:42.108Z,1.10
2019-01-04T15:01:10.692Z,1.10
2019-01-04T15:03:39.252Z,1.00
2019-01-04T15:06:07.836Z,1.00
2019-01-04T15:08:36.403Z,1.00
2019-01-04T15:11:04.983Z,0.90
2019-01-04T15:13:33.542Z,0.90
2019-01-04T15:16:02.126Z,0.80
2019-01-04T15:18:30.686Z,0.80
2019-01-04T15:20:59.275Z,0.70
2019-01-04T15:23:27.840Z,0.70
2019-01-04T15:25:56.426Z,0.60
2019-01-04T15:28:24.990Z,0.60
2019-01-04T15:30:53.626Z,0.70
2019-01-04T15:33:22.200Z,0.70
2019-01-04T15:35:50.770Z,0.60
2019-01-04T15:38:19.335Z,0.60
2019-01-04T15:40:47.920Z,0.60
2019-01-04T15:43:16.478Z,0.60
2019-01-04T15:45:45.063Z,0.60
2019-01-04T15:48:13.627Z,0.60
2019-01-04T15:50:42.211Z,0.50
2019-01-04T15:53:10.774Z,0.50
2019-01-04T15:55:40.971Z,0.50
2019-01-04T15:58:09.535Z,0.50
2019-01-04T16:00:38.126Z,0.50
2019-01-04T16:03:06.695Z,0.60
2019-01-04T16:05:35.274Z,0.50
2019-01-04T16:08:03.838Z,0.50
2019-01-04T16:10:32.427Z,0.50
2019-01-04T16:13:00.999Z,0.60
2019-01-04T16:15:29.591Z,0.60
2019-01-04T16:17:58.160Z,0.60
2019-01-04T16:20:26.744Z,0.60
2019-01-04T16:22:55.309Z,0.60
2019-01-04T16:25:23.898Z,0.60
2019-01-04T16:27:52.462Z,0.60
2019-01-04T16:30:21.031Z,0.60
2019-01-04T16:32:49.622Z,0.60
2019-01-04T16:35:18.182Z,0.60
2019-01-04T16:37:46.793Z,0.60
2019-01-04T16:40:15.357Z,0.60
2019-01-04T16:42:43.938Z,0.60
2019-01-04T16:45:12.571Z,0.70
2019-01-04T16:47:41.159Z,0.60
2019-01-04T16:50:09.867Z,0.60
2019-01-04T16:52:38.456Z,0.70
2019-01-04T16:55:08.573Z,0.70
2019-01-04T16:57:37.223Z,0.70
2019-01-04T17:00:09.099Z,0.70
2019-01-04T17:02:37.682Z,0.70
2019-01-04T17:05:06.315Z,0.70
2019-01-04T17:07:34.898Z,0.70
2019-01-04T17:10:03.732Z,0.70
2019-01-04T17:12:32.322Z,0.70
2019-01-04T17:15:00.887Z,0.70
2019-01-04T17:17:29.475Z,0.70
2019-01-04T17:19:58.158Z,0.70
2019-01-04T17:22:26.815Z,0.70
2019-01-04T17:24:55.384Z,0.70
2019-01-04T17:27:23.969Z,0.70
2019-01-04T17:29:52.536Z,0.70
2019-01-04T17:32:21.118Z,0.70
2019-01-04T17:34:49.692Z,0.70
2019-01-04T17:37:18.283Z,0.70
2019-01-04T17:39:46.846Z,0.70
2019-01-04T17:42:15.439Z,0.70
2019-01-04T17:44:44.002Z,0.70
2019-01-04T17:47:12.596Z,0.70
2019-01-04T17:49:41.158Z,0.70
2019-01-04T17:52:09.744Z,0.70
2019-01-04T17:54:38.307Z,0.70
2019-01-04T17:57:06.898Z,0.70
2019-01-04T17:59:35.458Z,0.70
2019-01-04T18:02:04.043Z,0.70
2019-01-04T18:04:32.612Z,0.70
2019-01-04T18:07:01.190Z,0.70
2019-01-04T18:09:29.768Z,0.70
2019-01-04T18:11:58.352Z,0.70
2019-01-04T18:14:26.910Z,0.70
2019-01-04T18:16:55.498Z,0.60
2019-01-04T18:19:24.172Z,0.70
2019-01-04T18:21:52.715Z,0.70
2019-01-04T18:24:21.280Z,0.60
2019-01-04T18:26:49.872Z,0.60
2019-01-04T18:29:18.639Z,0.60
2019-01-04T18:31:47.217Z,0.70
2019-01-04T18:34:15.793Z,0.60
2019-01-04T18:36:44.376Z,0.70
2019-01-04T18:39:12.953Z,0.70
2019-01-04T18:41:41.535Z,0.70
2019-01-04T18:44:10.105Z,0.70
2019-01-04T18:46:38.687Z,0.70
2019-01-04T18:49:07.251Z,0.70
2019-01-04T18:51:35.838Z,0.70
2019-01-04T18:54:04.407Z,0.70
2019-01-04T18:56:32.971Z,0.70
2019-01-04T18:59:01.559Z,0.70
2019-01-04T19:01:30.134Z,0.70
2019-01-04T19:03:58.716Z,0.70
2019-01-04T19:06:31.143Z,0.70
2019-01-04T19:08:57.511Z,0.70
2019-01-04T19:11:26.075Z,0.70
2019-01-04T19:13:54.672Z,0.70
2019-01-04T19:16:23.251Z,0.70
2019-01-04T19:18:51.839Z,0.70
2019-01-04T19:21:20.411Z,0.60
2019-01-04T19:23:49.001Z,0.60
2019-01-04T19:26:17.560Z,0.60
2019-01-04T19:28:46.147Z,0.60
2019-01-04T19:31:14.712Z,0.60
2019-01-04T19:33:43.308Z,0.60
2019-01-04T19:36:11.880Z,0.60
2019-01-04T19:38:40.463Z,0.60
2019-01-04T19:41:09.038Z,0.60
2019-01-04T19:43:37.623Z,0.60
2019-01-04T19:46:06.186Z,0.60
2019-01-04T19:48:34.780Z,0.70
2019-01-04T19:51:03.352Z,0.70
2019-01-04T19:53:31.939Z,0.70
2019-01-04T19:56:00.507Z,0.70
2019-01-04T19:58:29.087Z,0.80
2019-01-04T20:00:57.654Z,0.80
2019-01-04T20:03:26.239Z,0.90
2019-01-04T20:06:10.743Z,0.90
2019-01-04T20:08:55.818Z,0.90
2019-01-04T20:11:50.143Z,1.00
2019-01-04T20:14:41.093Z,1.00
2019-01-04T20:17:17.362Z,1.00
2019-01-04T20:19:54.087Z,1.10
2019-01-04T20:22:30.326Z,1.10
2019-01-04T20:25:00.547Z,1.10
2019-01-04T20:27:48.576Z,1.20
2019-01-04T20:30:18.778Z,1.20
2019-01-04T20:32:49.006Z,1.20
2019-01-04T20:35:27.626Z,1.20
2019-01-04T20:38:14.064Z,1.30
2019-01-04T20:40:44.247Z,1.20
2019-01-04T20:43:14.474Z,1.30
2019-01-04T20:45:44.684Z,1.30
2019-01-04T20:48:14.907Z,1.30
2019-01-04T20:50:48.043Z,1.30
2019-01-04T20:53:26.927Z,1.40
2019-01-04T20:56:02.523Z,1.40
2019-01-04T20:58:38.434Z,1.30
2019-01-04T21:01:24.562Z,1.30
2019-01-04T21:03:54.794Z,1.30
2019-01-04T21:06:30.835Z,1.30
2019-01-04T21:09:06.846Z,1.30
2019-01-04T21:11:51.884Z,1.30
2019-01-04T21:14:24.608Z,1.40
2019-01-04T21:17:00.523Z,1.30
2019-01-04T21:19:39.460Z,1.30
2019-01-04T21:22:24.227Z,1.30
2019-01-04T21:24:54.450Z,1.30
2019-01-04T21:27:36.431Z,1.30
2019-01-04T21:30:10.095Z,1.30
2019-01-04T21:32:40.346Z,1.30
2019-01-04T21:35:10.614Z,1.30
2019-01-04T21:37:58.684Z,1.30
2019-01-04T21:40:31.579Z,1.30
2019-01-04T21:43:17.766Z,1.40
2019-01-04T21:45:56.783Z,1.30
2019-01-04T21:48:38.750Z,1.30
2019-01-04T21:51:20.792Z,1.40
2019-01-04T21:53:51.024Z,1.40
2019-01-04T21:56:29.994Z,1.40
2019-01-04T21:59:03.155Z,1.30
2019-01-04T22:01:49.555Z,1.30
2019-01-04T22:04:25.479Z,1.30
2019-01-04T22:06:55.675Z,1.30
2019-01-04T22:09:34.943Z,1.30
2019-01-04T22:12:14.262Z,1.30
2019-01-04T22:14:44.491Z,1.30
2019-01-04T22:17:30.667Z,1.30
2019-01-04T22:20:00.900Z,1.30
2019-01-04T22:22:42.696Z,1.30
2019-01-04T22:25:21.894Z,1.30
2019-01-04T22:28:08.379Z,1.30
2019-01-04T22:30:41.001Z,1.40
2019-01-04T22:33:13.751Z,1.40
2019-01-04T22:36:00.147Z,1.40
2019-01-04T22:38:39.091Z,1.40
2019-01-04T22:41:12.251Z,1.40
2019-01-04T22:43:45.440Z,1.40
2019-01-04T22:46:31.962Z,1.40
2019-01-04T22:49:02.195Z,1.40
2019-01-04T22:51:41.148Z,1.40
2019-01-04T22:54:17.050Z,1.50
2019-01-04T22:57:02.322Z,1.50
2019-01-04T22:59:48.787Z,1.50
2019-01-04T23:02:30.906Z,1.50
2019-01-04T23:05:17.239Z,1.50
2019-01-04T23:08:03.811Z,1.50
2019-01-04T23:10:34.042Z,1.50
2019-01-04T23:13:06.954Z,1.50
2019-01-04T23:15:53.520Z,1.50
2019-01-04T23:18:23.723Z,1.50
2019-01-04T23:20:56.707Z,1.50
2019-01-04T23:23:26.859Z,1.50
2019-01-04T23:26:12.807Z,1.60
2019-01-04T23:28:45.942Z,1.60
2019-01-04T23:31:21.658Z,1.60
2019-01-04T23:34:08.059Z,1.60
2019-01-04T23:36:41.022Z,1.60
2019-01-04T23:39:17.159Z,1.60
2019-01-04T23:41:50.156Z,1.60
2019-01-04T23:44:23.087Z,1.60
2019-01-04T23:46:53.367Z,1.70
2019-01-04T23:49:26.515Z,1.70
2019-01-04T23:52:14.738Z,1.70
2019-01-04T23:54:47.928Z,1.70
2019-01-04T23:57:21.170Z,1.70
